Time,TemperatureF,DewpointF,PressureIn,WindDirection,WindDirectionDegrees,WindSpeedMPH,WindSpeedGustMPH,Humidity,HourlyPrecipIn,Conditions,Clouds,dailyrainin,SolarRadiationWatts/m^2,SoftwareType,DateUTC
2013-05-09 00:03:00,51.0,50.0,-100.00,SE,127,0.0,1.0,97,0.00,,,0.02,0.000000,,2013-05-09 04:03:00,
2013-05-09 00:11:00,50.0,49.0,-100.00,East,85,1.0,3.0,97,0.00,,,0.02,0.000000,,2013-05-09 04:11:00,
2013-05-09 00:33:00,50.0,49.0,-100.00,East,85,1.0,3.0,97,0.00,,,0.02,0.000000,,2013-05-09 04:33:00,
2013-05-09 00:43:00,50.0,49.0,-100.00,East,85,1.0,3.0,97,0.00,,,0.02,0.000000,,2013-05-09 04:43:00,
2013-05-09 00:53:00,50.0,49.0,-100.00,East,85,1.0,3.0,97,0.00,,,0.02,0.000000,,2013-05-09 04:53:00,
2013-05-09 01:02:00,50.0,49.0,-100.00,East,85,1.0,3.0,97,0.00,,,0.02,0.000000,,2013-05-09 05:02:00,
2013-05-09 01:11:00,49.0,48.0,-100.00,West,279,1.0,1.0,97,0.00,,,0.02,0.000000,,2013-05-09 05:11:00,
2013-05-09 01:32:00,49.0,48.0,-100.00,West,279,1.0,1.0,97,0.00,,,0.02,0.000000,,2013-05-09 05:32:00,
2013-05-09 01:43:00,49.0,48.0,-100.00,West,279,1.0,1.0,97,0.00,,,0.02,0.000000,,2013-05-09 05:43:00,
2013-05-09 01:52:00,49.0,48.0,-100.00,West,279,1.0,1.0,97,0.00,,,0.02,0.000000,,2013-05-09 05:52:00,
2013-05-09 02:02:00,49.0,48.0,-100.00,West,279,1.0,1.0,97,0.00,,,0.02,0.000000,,2013-05-09 06:02:00,
2013-05-09 02:11:00,48.0,47.0,-100.00,WNW,283,0.0,2.0,98,0.00,,,0.02,0.000000,,2013-05-09 06:11:00,
2013-05-09 02:42:00,48.0,47.0,-100.00,WNW,283,0.0,2.0,98,0.00,,,0.02,0.000000,,2013-05-09 06:42:00,
2013-05-09 02:52:00,48.0,47.0,-100.00,WNW,283,0.0,2.0,98,0.00,,,0.02,0.000000,,2013-05-09 06:52:00,
2013-05-09 03:01:00,48.0,47.0,-100.00,WNW,283,0.0,2.0,98,0.00,,,0.02,0.000000,,2013-05-09 07:01:00,
2013-05-09 03:11:00,46.0,45.0,-100.00,West,275,0.0,0.0,98,0.00,,,0.02,0.000000,,2013-05-09 07:11:00,
2013-05-09 03:43:00,46.0,45.0,-100.00,West,275,0.0,0.0,98,0.00,,,0.02,0.000000,,2013-05-09 07:43:00,
2013-05-09 03:52:00,46.0,45.0,-100.00,West,275,0.0,0.0,98,0.00,,,0.02,0.000000,,2013-05-09 07:52:00,
2013-05-09 04:02:00,46.0,45.0,-100.00,West,275,0.0,0.0,98,0.00,,,0.02,0.000000,,2013-05-09 08:02:00,
2013-05-09 04:11:00,46.0,45.0,-100.00,WSW,255,0.0,0.0,98,0.00,,,0.02,0.000000,,2013-05-09 08:11:00,
2013-05-09 04:42:00,46.0,45.0,-100.00,WSW,255,0.0,0.0,98,0.00,,,0.02,0.000000,,2013-05-09 08:42:00,
2013-05-09 04:52:00,46.0,45.0,-100.00,WSW,255,0.0,0.0,98,0.00,,,0.02,0.000000,,2013-05-09 08:52:00,
2013-05-09 05:02:00,46.0,45.0,-100.00,WSW,255,0.0,0.0,98,0.00,,,0.02,0.000000,,2013-05-09 09:02:00,
2013-05-09 05:11:00,44.0,44.0,-100.00,SW,228,0.0,1.0,99,0.00,,,0.02,0.000000,,2013-05-09 09:11:00,
2013-05-09 05:32:00,44.0,44.0,-100.00,SW,228,0.0,1.0,99,0.00,,,0.02,0.000000,,2013-05-09 09:32:00,
2013-05-09 05:43:00,44.0,44.0,-100.00,SW,228,0.0,1.0,99,0.00,,,0.02,0.000000,,2013-05-09 09:43:00,
2013-05-09 05:53:00,44.0,44.0,-100.00,SW,228,0.0,1.0,99,0.00,,,0.02,0.000000,,2013-05-09 09:53:00,
2013-05-09 06:02:00,44.0,44.0,-100.00,SW,228,0.0,1.0,99,0.00,,,0.02,0.000000,,2013-05-09 10:02:00,
2013-05-09 06:11:00,44.0,43.0,-100.00,SSW,203,0.0,0.0,98,0.00,,,0.02,0.000000,,2013-05-09 10:11:00,
2013-05-09 06:42:00,44.0,43.0,-100.00,SSW,203,0.0,0.0,98,0.00,,,0.02,0.000000,,2013-05-09 10:42:00,
2013-05-09 06:53:00,44.0,43.0,-100.00,SSW,203,0.0,0.0,98,0.00,,,0.02,0.000000,,2013-05-09 10:53:00,
2013-05-09 07:02:00,44.0,43.0,-100.00,SSW,203,0.0,0.0,98,0.00,,,0.02,0.000000,,2013-05-09 11:02:00,
2013-05-09 07:11:00,46.0,46.0,-100.00,West,274,1.0,2.0,99,0.00,,,0.02,19.000000,,2013-05-09 11:11:00,
2013-05-09 07:32:00,46.0,46.0,-100.00,West,274,1.0,2.0,99,0.00,,,0.02,19.000000,,2013-05-09 11:32:00,
2013-05-09 07:42:00,46.0,46.0,-100.00,West,274,1.0,2.0,99,0.00,,,0.02,19.000000,,2013-05-09 11:42:00,
2013-05-09 07:52:00,46.0,46.0,-100.00,West,274,1.0,2.0,99,0.00,,,0.02,19.000000,,2013-05-09 11:52:00,
2013-05-09 08:01:00,46.0,46.0,-100.00,West,274,1.0,2.0,99,0.00,,,0.02,19.000000,,2013-05-09 12:01:00,
2013-05-09 08:11:00,52.0,51.0,-100.00,ESE,104,1.0,3.0,98,0.00,,,-99.99,112.000000,,2013-05-09 12:11:00,
2013-05-09 08:43:00,52.0,51.0,-100.00,ESE,104,1.0,3.0,98,0.00,,,-99.99,112.000000,,2013-05-09 12:43:00,
2013-05-09 08:52:00,52.0,51.0,-100.00,ESE,104,1.0,3.0,98,0.00,,,-99.99,112.000000,,2013-05-09 12:52:00,
2013-05-09 09:02:00,52.0,51.0,-100.00,ESE,104,1.0,3.0,98,0.00,,,-99.99,112.000000,,2013-05-09 13:02:00,
2013-05-09 09:11:00,59.0,55.0,-100.00,ENE,78,3.0,5.0,88,0.00,,,0.01,422.000000,,2013-05-09 13:11:00,
2013-05-09 09:32:00,59.0,55.0,-100.00,ENE,78,3.0,5.0,88,0.00,,,0.01,422.000000,,2013-05-09 13:32:00,
2013-05-09 09:42:00,59.0,55.0,-100.00,ENE,78,3.0,5.0,88,0.00,,,0.01,422.000000,,2013-05-09 13:42:00,
2013-05-09 09:52:00,59.0,55.0,-100.00,ENE,78,3.0,5.0,88,0.00,,,0.01,422.000000,,2013-05-09 13:52:00,
2013-05-09 10:02:00,59.0,55.0,-100.00,ENE,78,3.0,5.0,88,0.00,,,0.01,422.000000,,2013-05-09 14:02:00,
2013-05-09 10:11:00,65.0,53.0,-100.00,ENE,78,4.0,7.0,65,0.00,,,0.01,677.000000,,2013-05-09 14:11:00,
2013-05-09 10:32:00,65.0,53.0,-100.00,ENE,78,4.0,7.0,65,0.00,,,0.01,677.000000,,2013-05-09 14:32:00,
2013-05-09 10:42:00,65.0,53.0,-100.00,ENE,78,4.0,7.0,65,0.00,,,0.01,677.000000,,2013-05-09 14:42:00,
2013-05-09 10:52:00,65.0,53.0,-100.00,ENE,78,4.0,7.0,65,0.00,,,0.01,677.000000,,2013-05-09 14:52:00,
2013-05-09 11:02:00,65.0,53.0,-100.00,ENE,78,4.0,7.0,65,0.00,,,0.01,677.000000,,2013-05-09 15:02:00,
2013-05-09 11:11:00,70.0,55.0,-100.00,East,81,3.0,7.0,59,0.00,,,0.01,875.000000,,2013-05-09 15:11:00,
2013-05-09 11:43:00,70.0,55.0,-100.00,East,81,3.0,7.0,59,0.00,,,0.01,875.000000,,2013-05-09 15:43:00,
2013-05-09 11:53:00,70.0,55.0,-100.00,East,81,3.0,7.0,59,0.00,,,0.01,875.000000,,2013-05-09 15:53:00,
2013-05-09 12:03:00,70.0,55.0,-100.00,East,81,3.0,7.0,59,0.00,,,0.01,875.000000,,2013-05-09 16:03:00,
2013-05-09 12:11:00,71.0,55.0,-100.00,SE,125,3.0,9.0,57,0.00,,,0.01,867.000000,,2013-05-09 16:11:00,
2013-05-09 12:42:00,71.0,55.0,-100.00,SE,125,3.0,9.0,57,0.00,,,0.01,867.000000,,2013-05-09 16:42:00,
2013-05-09 12:53:00,71.0,55.0,-100.00,SE,125,3.0,9.0,57,0.00,,,0.01,867.000000,,2013-05-09 16:53:00,
2013-05-09 13:02:00,71.0,55.0,-100.00,SE,125,3.0,9.0,57,0.00,,,0.01,867.000000,,2013-05-09 17:02:00,
2013-05-09 13:11:00,73.0,52.0,-100.00,ESE,107,4.0,8.0,47,0.00,,,0.01,814.000000,,2013-05-09 17:11:00,
2013-05-09 13:32:00,73.0,52.0,-100.00,ESE,107,4.0,8.0,47,0.00,,,0.01,814.000000,,2013-05-09 17:32:00,
2013-05-09 13:42:00,73.0,52.0,-100.00,ESE,107,4.0,8.0,47,0.00,,,0.01,814.000000,,2013-05-09 17:42:00,
2013-05-09 13:55:00,73.0,52.0,-100.00,ESE,107,4.0,8.0,47,0.00,,,0.01,814.000000,,2013-05-09 17:55:00,
2013-05-09 14:02:00,73.0,52.0,-100.00,ESE,107,4.0,8.0,47,0.00,,,0.01,814.000000,,2013-05-09 18:02:00,
2013-05-09 14:11:00,72.0,53.0,-100.00,East,99,3.0,7.0,51,0.00,,,0.01,617.000000,,2013-05-09 18:11:00,
2013-05-09 14:42:00,72.0,53.0,-100.00,East,99,3.0,7.0,51,0.00,,,0.01,617.000000,,2013-05-09 18:42:00,
2013-05-09 14:52:00,72.0,53.0,-100.00,East,99,3.0,7.0,51,0.00,,,0.01,617.000000,,2013-05-09 18:52:00,
2013-05-09 15:01:00,72.0,53.0,-100.00,East,99,3.0,7.0,51,0.00,,,0.01,617.000000,,2013-05-09 19:01:00,
2013-05-09 16:11:00,73.0,52.0,-100.00,ENE,64,4.0,11.0,47,-99.99,,,0.00,747.000000,,2013-05-09 20:11:00,
2013-05-09 16:32:00,73.0,52.0,-100.00,ENE,64,4.0,11.0,47,-99.99,,,0.00,747.000000,,2013-05-09 20:32:00,
2013-05-09 16:42:00,73.0,52.0,-100.00,ENE,64,4.0,11.0,47,-99.99,,,0.00,747.000000,,2013-05-09 20:42:00,
2013-05-09 16:52:00,73.0,52.0,-100.00,ENE,64,4.0,11.0,47,-99.99,,,0.00,747.000000,,2013-05-09 20:52:00,
2013-05-09 17:02:00,73.0,52.0,-100.00,ENE,64,4.0,11.0,47,-99.99,,,0.00,747.000000,,2013-05-09 21:02:00,
2013-05-09 18:11:00,70.0,52.0,-100.00,NE,36,2.0,8.0,52,-99.99,,,0.00,227.000000,,2013-05-09 22:11:00,
2013-05-09 18:33:00,70.0,52.0,-100.00,NE,36,2.0,8.0,52,-99.99,,,0.00,227.000000,,2013-05-09 22:33:00,
2013-05-09 18:42:00,70.0,52.0,-100.00,NE,36,2.0,8.0,52,-99.99,,,0.00,227.000000,,2013-05-09 22:42:00,
2013-05-09 18:52:00,70.0,52.0,-100.00,NE,36,2.0,8.0,52,-99.99,,,0.00,227.000000,,2013-05-09 22:52:00,
2013-05-09 19:02:00,70.0,52.0,-100.00,NE,36,2.0,8.0,52,-99.99,,,0.00,227.000000,,2013-05-09 23:02:00,
2013-05-09 19:11:00,66.0,56.0,-100.00,WSW,251,5.0,9.0,69,0.00,,,0.00,99.000000,,2013-05-09 23:11:00,
2013-05-09 19:32:00,66.0,56.0,-100.00,WSW,251,5.0,9.0,69,0.00,,,0.00,99.000000,,2013-05-09 23:32:00,
2013-05-09 19:42:00,66.0,56.0,-100.00,WSW,251,5.0,9.0,69,0.00,,,0.00,99.000000,,2013-05-09 23:42:00,
2013-05-09 19:52:00,66.0,56.0,-100.00,WSW,251,5.0,9.0,69,0.00,,,0.00,99.000000,,2013-05-09 23:52:00,
2013-05-09 20:01:00,66.0,56.0,-100.00,WSW,251,5.0,9.0,69,0.00,,,0.00,99.000000,,2013-05-10 00:01:00,
2013-05-09 21:11:00,62.0,54.0,-100.00,West,272,2.0,6.0,75,-99.99,,,0.00,4.000000,,2013-05-10 01:11:00,
2013-05-09 21:32:00,62.0,54.0,-100.00,West,272,2.0,6.0,75,-99.99,,,0.00,4.000000,,2013-05-10 01:32:00,
2013-05-09 21:42:00,62.0,54.0,-100.00,West,272,2.0,6.0,75,-99.99,,,0.00,4.000000,,2013-05-10 01:42:00,
2013-05-09 21:52:00,62.0,54.0,-100.00,West,272,2.0,6.0,75,-99.99,,,0.00,4.000000,,2013-05-10 01:52:00,
2013-05-09 22:02:00,62.0,54.0,-100.00,West,272,2.0,6.0,75,-99.99,,,0.00,4.000000,,2013-05-10 02:02:00,
2013-05-09 22:11:00,60.0,54.0,-100.00,NW,304,0.0,5.0,80,0.00,,,0.00,0.000000,,2013-05-10 02:11:00,
2013-05-09 22:32:00,60.0,54.0,-100.00,NW,304,0.0,5.0,80,0.00,,,0.00,0.000000,,2013-05-10 02:32:00,
2013-05-09 22:42:00,60.0,54.0,-100.00,NW,304,0.0,5.0,80,0.00,,,0.00,0.000000,,2013-05-10 02:42:00,
2013-05-09 22:53:00,60.0,54.0,-100.00,NW,304,0.0,5.0,80,0.00,,,0.00,0.000000,,2013-05-10 02:53:00,
2013-05-09 23:01:00,60.0,54.0,-100.00,NW,304,0.0,5.0,80,0.00,,,0.00,0.000000,,2013-05-10 03:01:00,
2013-05-09 23:11:00,59.0,55.0,-100.00,WSW,258,0.0,2.0,87,0.00,,,0.00,0.000000,,2013-05-10 03:11:00,
2013-05-09 23:33:00,59.0,55.0,-100.00,WSW,258,0.0,2.0,87,0.00,,,0.00,0.000000,,2013-05-10 03:33:00,
2013-05-09 23:43:00,59.0,55.0,-100.00,WSW,258,0.0,2.0,87,0.00,,,0.00,0.000000,,2013-05-10 03:43:00,
2013-05-09 23:53:00,59.0,55.0,-100.00,WSW,258,0.0,2.0,87,0.00,,,0.00,0.000000,,2013-05-10 03:53:00,